createdAt,value
2023-05-20T00:01:59.971Z,18.55
2023-05-20T00:04:27.944Z,18.47
2023-05-20T00:06:56.221Z,18.40
2023-05-20T00:09:25.528Z,18.33
2023-05-20T00:11:53.486Z,18.28
2023-05-20T00:14:21.582Z,18.27
2023-05-20T00:16:49.529Z,18.22
2023-05-20T00:19:17.651Z,18.17
2023-05-20T00:21:45.641Z,18.11
2023-05-20T00:24:13.565Z,18.04
2023-05-20T00:26:42.856Z,18.01
2023-05-20T00:29:10.770Z,17.97
2023-05-20T00:31:38.824Z,17.96
2023-05-20T00:34:06.759Z,17.96
2023-05-20T00:36:34.674Z,17.95
2023-05-20T00:39:02.576Z,17.93
2023-05-20T00:41:30.478Z,17.92
2023-05-20T00:43:59.747Z,17.90
2023-05-20T00:46:27.904Z,17.84
2023-05-20T00:48:55.880Z,17.78
2023-05-20T00:51:23.826Z,17.70
2023-05-20T00:53:51.750Z,17.61
2023-05-20T00:56:19.658Z,17.58
2023-05-20T00:58:47.626Z,17.53
2023-05-20T01:01:16.943Z,17.50
2023-05-20T01:03:44.938Z,17.45
2023-05-20T01:06:12.918Z,17.48
2023-05-20T01:08:41.103Z,17.47
2023-05-20T01:11:10.366Z,17.49
2023-05-20T01:13:40.506Z,17.49
2023-05-20T01:16:09.082Z,17.52
2023-05-20T01:18:38.610Z,17.48
2023-05-20T01:21:06.663Z,17.48
2023-05-20T01:23:39.933Z,17.46
2023-05-20T01:26:07.904Z,17.34
2023-05-20T01:28:36.029Z,17.23
2023-05-20T01:31:04.317Z,17.15
2023-05-20T01:33:32.278Z,17.12
2023-05-20T01:38:28.379Z,17.06
2023-05-20T01:40:57.720Z,17.04
2023-05-20T01:43:25.742Z,17.10
2023-05-20T01:45:54.068Z,17.09
2023-05-20T01:48:22.053Z,17.10
2023-05-20T01:50:49.957Z,17.11
2023-05-20T01:53:18.016Z,17.09
2023-05-20T01:55:46.022Z,17.07
2023-05-20T01:58:15.345Z,17.05
2023-05-20T02:00:43.305Z,17.06
2023-05-20T02:03:11.409Z,17.05
2023-05-20T02:05:39.512Z,17.06
2023-05-20T02:08:07.528Z,17.05
2023-05-20T02:10:35.494Z,17.01
2023-05-20T02:13:03.418Z,16.96
2023-05-20T02:15:32.848Z,16.90
2023-05-20T02:18:00.896Z,16.84
2023-05-20T02:20:29.258Z,16.78
2023-05-20T02:22:57.119Z,16.74
2023-05-20T02:25:25.190Z,16.68
2023-05-20T02:27:53.109Z,16.66
2023-05-20T02:30:21.094Z,16.58
2023-05-20T02:32:50.484Z,16.56
2023-05-20T02:35:18.382Z,16.54
2023-05-20T02:37:48.378Z,16.54
2023-05-20T02:40:16.731Z,16.54
2023-05-20T02:42:44.795Z,16.51
2023-05-20T02:45:12.752Z,16.47
2023-05-20T02:47:40.768Z,16.44
2023-05-20T02:50:10.640Z,16.41
2023-05-20T02:52:40.009Z,16.42
2023-05-20T02:55:08.828Z,16.44
2023-05-20T02:57:38.366Z,16.45
2023-05-20T03:00:07.788Z,16.45
2023-05-20T03:02:35.739Z,16.45
2023-05-20T03:05:05.258Z,16.49
2023-05-20T03:07:36.276Z,16.51
2023-05-20T03:10:05.025Z,16.58
2023-05-20T03:12:32.968Z,16.63
2023-05-20T03:15:01.247Z,16.67
2023-05-20T03:17:29.364Z,16.73
2023-05-20T03:19:57.283Z,16.73
2023-05-20T03:22:25.226Z,16.68
2023-05-20T03:24:54.560Z,16.64
2023-05-20T03:27:22.704Z,16.57
2023-05-20T03:29:51.412Z,16.51
2023-05-20T03:32:19.396Z,16.47
2023-05-20T03:34:47.561Z,16.41
2023-05-20T03:37:15.438Z,16.37
2023-05-20T03:39:43.353Z,16.32
2023-05-20T03:42:12.688Z,16.29
2023-05-20T03:44:40.838Z,16.22
2023-05-20T03:47:08.860Z,16.18
2023-05-20T03:49:36.751Z,16.15
2023-05-20T03:52:04.838Z,16.12
2023-05-20T03:54:32.753Z,16.14
2023-05-20T03:57:03.022Z,16.16
2023-05-20T03:59:32.505Z,16.15
2023-05-20T04:02:00.496Z,16.14
2023-05-20T04:04:28.433Z,16.11
2023-05-20T04:06:56.884Z,16.07
2023-05-20T04:09:24.824Z,15.97
2023-05-20T04:11:52.733Z,15.94
2023-05-20T04:14:20.655Z,15.87
2023-05-20T04:16:50.355Z,15.73
2023-05-20T04:19:19.592Z,15.88
2023-05-20T04:21:47.579Z,15.92
2023-05-20T04:24:15.487Z,15.98
2023-05-20T04:26:43.539Z,16.03
2023-05-20T04:29:11.955Z,16.07
2023-05-20T04:31:40.395Z,16.02
2023-05-20T04:34:09.766Z,15.95
2023-05-20T04:36:38.264Z,15.85
2023-05-20T04:39:06.303Z,15.77
2023-05-20T04:41:35.379Z,15.71
2023-05-20T04:44:03.924Z,15.68
2023-05-20T04:46:32.244Z,15.66
2023-05-20T04:49:00.222Z,15.64
2023-05-20T04:51:30.263Z,15.64
2023-05-20T04:53:59.140Z,15.65
2023-05-20T04:56:27.188Z,15.66
2023-05-20T04:58:56.146Z,15.68
2023-05-20T05:01:24.109Z,15.70
2023-05-20T05:03:52.010Z,15.72
2023-05-20T05:06:19.906Z,15.72
2023-05-20T05:08:49.195Z,15.78
2023-05-20T05:11:17.121Z,15.83
2023-05-20T05:13:45.072Z,15.85
2023-05-20T05:16:13.058Z,15.87
2023-05-20T05:18:41.038Z,15.88
2023-05-20T05:21:08.947Z,15.99
2023-05-20T05:23:36.952Z,16.14
2023-05-20T05:26:06.255Z,16.10
2023-05-20T05:28:34.219Z,16.31
2023-05-20T05:31:02.504Z,16.42
2023-05-20T05:33:30.571Z,16.53
2023-05-20T05:35:59.265Z,16.63
2023-05-20T05:38:27.417Z,16.69
2023-05-20T05:40:55.325Z,16.72
2023-05-20T05:43:24.632Z,16.76
2023-05-20T05:45:52.569Z,16.83
2023-05-20T05:48:20.603Z,16.89
2023-05-20T05:50:48.532Z,16.94
2023-05-20T05:53:16.530Z,16.99
2023-05-20T05:55:44.419Z,16.99
2023-05-20T05:58:12.435Z,17.01
2023-05-20T06:00:41.771Z,17.07
2023-05-20T06:03:09.841Z,17.10
2023-05-20T06:05:37.778Z,17.17
2023-05-20T06:08:06.323Z,17.24
2023-05-20T06:10:34.295Z,17.32
2023-05-20T06:13:02.225Z,17.38
2023-05-20T06:15:30.112Z,17.46
2023-05-20T06:17:59.548Z,17.53
2023-05-20T06:20:27.444Z,17.60
2023-05-20T06:22:55.386Z,17.63
2023-05-20T06:25:23.989Z,17.69
2023-05-20T06:27:51.905Z,17.71
2023-05-20T06:30:20.038Z,17.77
2023-05-20T06:32:47.995Z,17.86
2023-05-20T06:35:17.473Z,17.89
2023-05-20T06:37:45.412Z,17.96
2023-05-20T06:40:13.842Z,18.01
2023-05-20T06:42:42.147Z,18.07
2023-05-20T06:45:10.927Z,18.13
2023-05-20T06:47:38.877Z,18.23
2023-05-20T06:50:07.667Z,18.31
2023-05-20T06:52:36.940Z,18.38
2023-05-20T06:55:05.030Z,18.45
2023-05-20T06:57:32.955Z,18.50
2023-05-20T07:00:00.933Z,18.56
2023-05-20T07:02:29.323Z,18.60
2023-05-20T07:04:57.200Z,18.69
2023-05-20T07:07:25.112Z,18.76
2023-05-20T07:09:54.463Z,18.83
2023-05-20T07:12:22.364Z,18.90
2023-05-20T07:14:50.274Z,18.92
2023-05-20T07:17:18.301Z,18.94
2023-05-20T07:19:46.279Z,18.97
2023-05-20T07:22:14.294Z,19.02
2023-05-20T07:24:42.216Z,19.07
2023-05-20T07:27:11.467Z,19.14
2023-05-20T07:29:39.762Z,19.11
2023-05-20T07:32:10.094Z,19.27
2023-05-20T07:34:38.173Z,19.34
2023-05-20T07:37:06.608Z,19.37
2023-05-20T07:39:34.618Z,19.44
2023-05-20T07:42:02.551Z,19.50
2023-05-20T07:44:31.885Z,19.53
2023-05-20T07:46:59.829Z,19.58
2023-05-20T07:49:28.237Z,19.60
2023-05-20T07:51:56.213Z,19.68
2023-05-20T07:54:24.366Z,19.72
2023-05-20T07:56:52.341Z,19.77
2023-05-20T07:59:20.315Z,19.79
2023-05-20T08:01:49.746Z,19.85
2023-05-20T08:04:17.905Z,19.86
2023-05-20T08:06:46.004Z,19.93
2023-05-20T08:09:14.007Z,19.96
2023-05-20T08:11:41.913Z,20.03
2023-05-20T08:14:09.847Z,20.09
2023-05-20T08:16:37.881Z,20.15
2023-05-20T08:19:07.219Z,20.19
2023-05-20T08:21:35.781Z,20.25
2023-05-20T08:24:03.735Z,20.37
2023-05-20T08:26:31.641Z,20.38
2023-05-20T08:28:59.568Z,20.43
2023-05-20T08:31:28.178Z,20.51
2023-05-20T08:33:56.377Z,20.54
2023-05-20T08:36:25.855Z,20.58
2023-05-20T08:38:53.872Z,20.64
2023-05-20T08:41:22.793Z,20.68
2023-05-20T08:43:50.963Z,20.76
2023-05-20T08:46:18.984Z,20.79
2023-05-20T08:48:47.032Z,20.83
2023-05-20T08:51:14.934Z,20.86
2023-05-20T08:53:44.718Z,20.87
2023-05-20T08:56:12.784Z,20.88
2023-05-20T08:58:40.872Z,20.90
2023-05-20T09:01:09.513Z,20.94
2023-05-20T09:03:37.412Z,21.00
2023-05-20T09:06:05.906Z,20.99
2023-05-20T09:08:34.484Z,21.00
2023-05-20T09:11:03.885Z,20.99
2023-05-20T09:13:32.544Z,20.99
2023-05-20T09:16:01.558Z,21.11
2023-05-20T09:18:29.503Z,21.21
2023-05-20T09:20:57.579Z,21.27
2023-05-20T09:23:27.711Z,21.33
2023-05-20T09:25:55.746Z,21.39
2023-05-20T09:28:25.685Z,21.45
2023-05-20T09:30:59.016Z,21.53
2023-05-20T09:33:29.958Z,21.61
2023-05-20T09:36:07.068Z,21.70
2023-05-20T09:38:38.154Z,21.77
2023-05-20T09:41:08.233Z,21.83
2023-05-20T09:43:37.912Z,21.83
2023-05-20T09:46:06.052Z,21.86
2023-05-20T09:48:34.498Z,21.85
2023-05-20T09:51:02.603Z,21.94
2023-05-20T09:53:30.749Z,21.94
2023-05-20T09:55:59.142Z,22.01
2023-05-20T09:58:27.237Z,22.03
2023-05-20T10:00:56.462Z,22.10
2023-05-20T10:03:28.710Z,22.21
2023-05-20T10:06:04.020Z,22.28
2023-05-20T10:08:43.005Z,22.36
2023-05-20T10:11:16.757Z,22.48
2023-05-20T10:13:52.058Z,22.58
2023-05-20T10:16:30.568Z,22.65
2023-05-20T10:19:02.262Z,22.69
2023-05-20T10:21:30.190Z,22.71
2023-05-20T10:24:07.185Z,22.80
2023-05-20T10:26:38.332Z,22.86
2023-05-20T10:29:16.606Z,22.92
2023-05-20T10:31:50.136Z,23.00
2023-05-20T10:34:18.628Z,23.04
2023-05-20T10:36:48.149Z,23.16
2023-05-20T10:39:16.908Z,23.27
2023-05-20T10:41:44.850Z,23.37
2023-05-20T10:44:15.764Z,23.51
2023-05-20T10:49:24.152Z,23.58
2023-05-20T10:51:53.446Z,23.67
2023-05-20T10:54:21.720Z,23.74
2023-05-20T10:56:53.542Z,23.83
2023-05-20T10:59:22.751Z,23.90
2023-05-20T11:01:50.731Z,23.93
2023-05-20T11:04:20.645Z,24.02
2023-05-20T11:06:51.812Z,24.08
2023-05-20T11:09:19.755Z,24.21
2023-05-20T11:11:47.881Z,24.21
2023-05-20T11:14:17.325Z,24.19
2023-05-20T11:16:45.411Z,24.26
2023-05-20T11:19:16.146Z,24.34
2023-05-20T11:21:46.193Z,24.44
2023-05-20T11:24:14.123Z,24.71
2023-05-20T11:26:42.180Z,24.93
2023-05-20T11:29:10.104Z,24.78
2023-05-20T11:31:39.196Z,24.74
2023-05-20T11:34:07.226Z,24.91
2023-05-20T11:36:35.171Z,25.21
2023-05-20T11:39:05.642Z,25.55
2023-05-20T11:41:33.778Z,25.89
2023-05-20T11:44:01.702Z,26.21
2023-05-20T11:46:29.732Z,26.51
2023-05-20T11:48:58.262Z,26.77
2023-05-20T11:51:27.145Z,27.06
2023-05-20T11:53:55.455Z,27.36
2023-05-20T11:56:24.729Z,27.70
2023-05-20T11:58:52.902Z,27.98
2023-05-20T12:01:22.167Z,28.24
2023-05-20T12:03:51.433Z,28.45
2023-05-20T12:06:19.553Z,28.68
2023-05-20T12:08:47.583Z,28.82
2023-05-20T12:11:15.524Z,29.11
2023-05-20T12:13:44.789Z,29.41
2023-05-20T12:16:12.862Z,29.57
2023-05-20T12:18:40.908Z,29.70
2023-05-20T12:21:08.860Z,29.77
2023-05-20T12:23:36.883Z,29.78
2023-05-20T12:26:05.706Z,29.81
2023-05-20T12:28:33.860Z,29.90
2023-05-20T12:31:03.561Z,29.95
2023-05-20T12:33:31.533Z,30.04
2023-05-20T12:35:59.499Z,29.94
2023-05-20T12:38:28.141Z,29.89
2023-05-20T12:40:56.130Z,29.85
2023-05-20T12:43:24.327Z,29.74
2023-05-20T12:45:52.330Z,29.76
2023-05-20T12:48:21.752Z,29.64
2023-05-20T12:50:49.769Z,29.58
2023-05-20T12:53:17.647Z,29.59
2023-05-20T12:55:45.827Z,29.61
2023-05-20T12:58:13.759Z,29.59
2023-05-20T13:00:41.700Z,29.63
2023-05-20T13:03:09.918Z,29.68
2023-05-20T13:05:39.549Z,29.70
2023-05-20T13:08:09.182Z,29.75
2023-05-20T13:10:37.656Z,29.83
2023-05-20T13:13:06.090Z,29.95
2023-05-20T13:15:34.314Z,30.08
2023-05-20T13:18:03.473Z,30.27
2023-05-20T13:20:31.553Z,30.54
2023-05-20T13:23:00.911Z,30.85
2023-05-20T13:25:31.891Z,31.19
2023-05-20T13:27:59.938Z,31.55
2023-05-20T13:30:28.451Z,31.84
2023-05-20T13:32:56.665Z,31.95
2023-05-20T13:35:24.714Z,31.99
2023-05-20T13:37:52.814Z,32.13
2023-05-20T13:40:22.516Z,32.23
2023-05-20T13:42:50.451Z,32.29
2023-05-20T13:45:19.109Z,32.40
2023-05-20T13:47:47.360Z,32.49
2023-05-20T13:50:15.298Z,32.72
2023-05-20T13:52:43.261Z,32.87
2023-05-20T13:55:11.290Z,33.10
2023-05-20T13:57:40.607Z,33.17
2023-05-20T14:00:09.937Z,33.16
2023-05-20T14:02:37.961Z,33.30
2023-05-20T14:05:07.678Z,33.48
2023-05-20T14:07:35.748Z,33.75
2023-05-20T14:10:05.270Z,33.97
2023-05-20T14:12:36.361Z,34.08
2023-05-20T14:15:06.612Z,34.26
2023-05-20T14:17:34.586Z,34.45
2023-05-20T14:20:02.567Z,34.41
2023-05-20T14:22:30.877Z,34.30
2023-05-20T14:24:59.421Z,34.35
2023-05-20T14:27:27.686Z,34.41
2023-05-20T14:29:55.689Z,34.58
2023-05-20T14:32:25.144Z,34.69
2023-05-20T14:34:53.822Z,34.74
2023-05-20T14:37:22.954Z,34.66
2023-05-20T14:39:50.935Z,34.86
2023-05-20T14:42:18.915Z,35.13
2023-05-20T14:44:49.495Z,35.39
2023-05-20T14:47:19.349Z,35.55
2023-05-20T14:49:50.087Z,35.65
2023-05-20T14:52:18.076Z,35.70
2023-05-20T14:54:46.079Z,35.63
2023-05-20T14:57:15.883Z,35.62
2023-05-20T14:59:43.942Z,35.53
2023-05-20T15:02:14.768Z,35.41
2023-05-20T15:04:46.413Z,35.29
2023-05-20T15:07:16.068Z,35.32
2023-05-20T15:09:44.574Z,35.43
2023-05-20T15:12:12.524Z,35.46
2023-05-20T15:14:40.484Z,35.47
2023-05-20T15:17:08.475Z,35.50
2023-05-20T15:19:39.008Z,35.67
2023-05-20T15:22:09.115Z,35.85
2023-05-20T15:24:38.495Z,36.05
2023-05-20T15:27:07.003Z,36.24
2023-05-20T15:29:35.203Z,36.44
2023-05-20T15:32:03.377Z,36.57
2023-05-20T15:34:31.420Z,36.64
2023-05-20T15:36:59.363Z,36.67
2023-05-20T15:39:28.375Z,36.76
2023-05-20T15:41:59.520Z,36.73
2023-05-20T15:44:28.819Z,36.70
2023-05-20T15:46:56.908Z,36.74
2023-05-20T15:49:24.831Z,36.72
2023-05-20T15:52:02.879Z,36.85
2023-05-20T15:54:31.984Z,36.91
2023-05-20T15:57:02.656Z,37.01
2023-05-20T15:59:30.856Z,36.72
2023-05-20T16:01:58.897Z,36.64
2023-05-20T16:04:26.940Z,36.83
2023-05-20T16:06:55.023Z,36.88
2023-05-20T16:09:23.095Z,36.99
2023-05-20T16:11:51.131Z,37.08
2023-05-20T16:14:20.536Z,37.04
2023-05-20T16:16:48.633Z,37.04
2023-05-20T16:19:16.688Z,37.03
2023-05-20T16:21:44.776Z,37.01
2023-05-20T16:24:12.730Z,37.11
2023-05-20T16:26:40.641Z,37.14
2023-05-20T16:29:08.562Z,36.88
2023-05-20T16:31:37.968Z,36.59
2023-05-20T16:34:06.640Z,36.27
2023-05-20T16:36:34.590Z,36.01
2023-05-20T16:39:02.529Z,35.80
2023-05-20T16:41:30.761Z,35.71
2023-05-20T16:43:58.769Z,35.55
2023-05-20T16:46:26.683Z,35.58
2023-05-20T16:48:56.169Z,35.71
2023-05-20T16:51:24.182Z,35.84
2023-05-20T16:53:52.133Z,35.92
2023-05-20T16:56:21.877Z,35.99
2023-05-20T16:58:52.593Z,35.82
2023-05-20T17:01:21.299Z,35.62
2023-05-20T17:03:49.798Z,35.47
2023-05-20T17:06:19.177Z,35.51
2023-05-20T17:08:47.236Z,35.60
2023-05-20T17:11:15.669Z,35.75
2023-05-20T17:13:43.643Z,35.86
2023-05-20T17:16:12.145Z,35.96
2023-05-20T17:18:40.321Z,36.22
2023-05-20T17:21:08.235Z,36.16
2023-05-20T17:23:37.673Z,35.85
2023-05-20T17:26:05.875Z,35.65
2023-05-20T17:28:33.869Z,35.23
2023-05-20T17:31:01.798Z,34.58
2023-05-20T17:33:29.847Z,34.26
2023-05-20T17:35:57.788Z,33.77
2023-05-20T17:38:26.465Z,32.97
2023-05-20T17:40:55.740Z,32.14
2023-05-20T17:43:25.124Z,31.27
2023-05-20T17:45:53.164Z,30.49
2023-05-20T17:48:21.285Z,29.81
2023-05-20T17:50:49.232Z,29.37
2023-05-20T17:53:18.720Z,29.08
2023-05-20T17:55:49.490Z,28.73
2023-05-20T17:58:22.234Z,28.45
2023-05-20T18:00:50.223Z,28.20
2023-05-20T18:03:19.240Z,28.10
2023-05-20T18:05:47.668Z,27.91
2023-05-20T18:08:15.610Z,27.70
2023-05-20T18:10:43.587Z,27.85
2023-05-20T18:13:12.224Z,28.24
2023-05-20T18:15:41.658Z,28.65
2023-05-20T18:18:09.773Z,29.07
2023-05-20T18:20:37.890Z,29.57
2023-05-20T18:23:05.958Z,30.19
2023-05-20T18:25:33.864Z,30.63
2023-05-20T18:28:02.000Z,30.44
2023-05-20T18:30:29.942Z,29.74
2023-05-20T18:32:59.304Z,28.95
2023-05-20T18:35:27.248Z,28.30
2023-05-20T18:37:55.336Z,27.75
2023-05-20T18:40:23.198Z,27.21
2023-05-20T18:42:51.064Z,26.78
2023-05-20T18:45:19.149Z,26.41
2023-05-20T18:47:47.169Z,26.06
2023-05-20T18:50:16.593Z,25.79
2023-05-20T18:52:44.529Z,25.49
2023-05-20T18:55:12.582Z,25.28
2023-05-20T18:57:40.452Z,25.09
2023-05-20T19:00:12.440Z,24.87
2023-05-20T19:02:40.718Z,24.73
2023-05-20T19:05:10.018Z,24.59
2023-05-20T19:07:39.585Z,24.47
2023-05-20T19:10:08.944Z,24.36
2023-05-20T19:12:36.882Z,24.28
2023-05-20T19:15:05.920Z,24.17
2023-05-20T19:17:34.173Z,24.10
2023-05-20T19:20:02.592Z,24.01
2023-05-20T19:22:30.833Z,23.94
2023-05-20T19:25:00.515Z,23.83
2023-05-20T19:27:28.436Z,23.70
2023-05-20T19:29:56.482Z,23.57
2023-05-20T19:32:24.478Z,23.44
2023-05-20T19:34:52.461Z,23.29
2023-05-20T19:37:22.432Z,23.16
2023-05-20T19:39:51.182Z,22.98
2023-05-20T19:42:20.528Z,22.87
2023-05-20T19:44:48.471Z,22.71
2023-05-20T19:47:16.592Z,22.55
2023-05-20T19:49:44.589Z,22.40
2023-05-20T19:52:12.644Z,22.24
2023-05-20T19:54:42.971Z,22.10
2023-05-20T19:57:11.291Z,22.03
2023-05-20T19:59:40.978Z,21.95
2023-05-20T20:02:09.008Z,21.87
2023-05-20T20:04:37.499Z,21.80
2023-05-20T20:07:07.631Z,21.73
2023-05-20T20:09:36.224Z,21.65
2023-05-20T20:12:04.570Z,21.53
2023-05-20T20:14:32.459Z,21.46
2023-05-20T20:17:01.711Z,21.38
2023-05-20T20:19:29.761Z,21.32
2023-05-20T20:21:58.364Z,21.22
2023-05-20T20:24:27.061Z,21.13
2023-05-20T20:26:56.926Z,21.08
2023-05-20T20:29:25.026Z,20.99
2023-05-20T20:31:53.115Z,20.90
2023-05-20T20:34:22.700Z,20.79
2023-05-20T20:36:51.329Z,20.66
2023-05-20T20:39:19.984Z,20.54
2023-05-20T20:41:50.549Z,20.43
2023-05-20T20:44:20.961Z,20.36
2023-05-20T20:46:51.282Z,20.29
2023-05-20T20:49:19.302Z,20.22
2023-05-20T20:51:48.817Z,20.15
2023-05-20T20:54:16.845Z,20.07
2023-05-20T20:56:47.006Z,20.00
2023-05-20T20:59:16.001Z,19.89
2023-05-20T21:01:44.893Z,19.78
2023-05-20T21:04:14.115Z,19.66
2023-05-20T21:06:42.359Z,19.59
2023-05-20T21:09:11.751Z,19.53
2023-05-20T21:11:42.305Z,19.47
2023-05-20T21:14:10.245Z,19.52
2023-05-20T21:16:38.507Z,19.51
2023-05-20T21:19:06.715Z,19.50
2023-05-20T21:21:34.682Z,19.43
2023-05-20T21:24:02.669Z,19.39
2023-05-20T21:26:32.068Z,19.35
2023-05-20T21:29:00.055Z,19.32
2023-05-20T21:31:28.273Z,19.22
2023-05-20T21:33:56.415Z,19.13
2023-05-20T21:36:24.553Z,19.06
2023-05-20T21:38:52.527Z,18.98
2023-05-20T21:41:21.488Z,18.99
2023-05-20T21:43:50.908Z,18.95
2023-05-20T21:46:18.929Z,18.89
2023-05-20T21:48:47.082Z,18.81
2023-05-20T21:51:15.006Z,18.69
2023-05-20T21:53:43.145Z,18.61
2023-05-20T21:56:11.100Z,18.51
2023-05-20T21:58:41.721Z,18.44
2023-05-20T22:01:11.146Z,18.38
2023-05-20T22:03:39.945Z,18.32
2023-05-20T22:06:08.333Z,18.28
2023-05-20T22:08:36.307Z,18.25
2023-05-20T22:11:07.414Z,18.17
2023-05-20T22:13:36.392Z,18.10
2023-05-20T22:16:05.163Z,18.01
2023-05-20T22:18:34.921Z,17.98
2023-05-20T22:21:02.832Z,17.93
2023-05-20T22:23:30.752Z,17.83
2023-05-20T22:25:58.642Z,17.77
2023-05-20T22:28:26.514Z,17.76
2023-05-20T22:30:54.756Z,17.77
2023-05-20T22:33:24.403Z,17.79
2023-05-20T22:35:54.497Z,17.78
2023-05-20T22:38:22.414Z,17.74
2023-05-20T22:40:50.416Z,17.66
2023-05-20T22:43:18.340Z,17.57
2023-05-20T22:45:46.239Z,17.51
2023-05-20T22:48:14.363Z,17.43
2023-05-20T22:50:42.508Z,17.35
2023-05-20T22:53:11.931Z,17.36
2023-05-20T22:55:39.997Z,17.32
2023-05-20T22:58:08.676Z,17.27
2023-05-20T23:00:37.193Z,17.21
2023-05-20T23:03:05.220Z,17.17
2023-05-20T23:05:33.194Z,17.08
2023-05-20T23:08:01.419Z,17.05
2023-05-20T23:10:30.753Z,17.06
2023-05-20T23:12:58.634Z,17.02
2023-05-20T23:15:27.755Z,17.01
2023-05-20T23:17:56.373Z,16.97
2023-05-20T23:20:24.315Z,16.94
2023-05-20T23:22:52.334Z,16.96
2023-05-20T23:25:20.501Z,16.90
2023-05-20T23:27:49.886Z,16.98
2023-05-20T23:30:17.800Z,16.97
2023-05-20T23:32:45.778Z,16.97
2023-05-20T23:35:13.809Z,16.96
2023-05-20T23:37:42.249Z,16.97
2023-05-20T23:40:10.787Z,16.96
2023-05-20T23:42:38.738Z,16.93
2023-05-20T23:45:09.057Z,16.90
2023-05-20T23:47:37.879Z,16.89
2023-05-20T23:50:06.373Z,16.89
2023-05-20T23:52:34.251Z,16.87
2023-05-20T23:55:02.253Z,16.80
2023-05-20T23:57:30.139Z,16.72
2023-05-20T23:59:58.134Z,16.69
